Diomede, Alaska
Current Conditions -  °F | °C
As of 10:58 AM on Wednesday 28 Jan 2015 (Local Time) from PATE Reporting Station
Clear Clear  
Wind Chill: -31°   Ceiling: Unl
Heat Index: -21°   Visibility: 10mi
Dew Point: -27°   Wind: 12mph
Humidity: 62%   Direction: 130°SE
Pressure: 30.46"   Gusts: NA
Location:  65.1617°N, 164.975°W
Report Text: PATE 281958Z AUTO 13010KT 10SM CLR M21/M27 A3046 RMK AO2 SLP329 T12111267 FZRANO
Loading
Personal Weather Stations






























Interactive Weather Map New forecast layout! Learn more

10-Day Weather Forecast

Advertisements
Track Severe Weather on mobile